Mc Grath Airport
PAMC : rendu visible

Aérodrome :











RETROUVEZ-NOUS SUR...

 
LOGIN :

S'inscrire | Disclaimer

   EN    FR    IT 

 









Légende :    VFR   VFR Marginal   IFR   IFR Intensif   IFR Très Intensif
Visi : 
Plafond : 
>= 8 km
>= 3000ft
5 à 8 km
1000 à 3000 ft
1500m à 5 km
500 à 1000 ft
800 à 1500m
200 à 500 ft
< 800m
< 200 ft
Symboles :   Orages  Brouillard  Fortes neiges  Fortes précipitations  Vent > 20 kt






- Altitude de l'aérodrome : 341 ft
- Code IATA : MCG


PAMC - Mc Grath

DERNIER METAR :
  • 170007Z AUTO 07005KT 1SM -SN BKN022 OVC039 M21/M23 A2997 RMK AO2 P0000 T12061233 TSNO $

METARs EXPIRÉS :
  • 162353Z AUTO 07005KT 2SM -SN BKN024 OVC039 M21/M23 A2998 RMK AO2 SNB2258E14B31 SLP164 P0000 60001 T12061233 11206 21222 58006 TSNO $
  • 162335Z AUTO VRB06KT 1 1/2SM -SN BKN020 OVC047 M21/M24 A2998 RMK AO2 SNB2258E14B31 P0000 T12061239 TSNO $
  • 162253Z AUTO 06007KT 10SM BKN021 OVC060 M21/M24 A2999 RMK AO2 SNB05E44 SLP168 P0000 T12061239 TSNO $

TAF PAMC
Valide du 17 à 00h jusqu'au 18 à 00h UTC


162338Z 1700/1724 06004KT P6SM VCSH BKN021 OVC060
FM171500 VRB02KT 1 1/2SM -SN BR BKN015 OVC025
FM172000 VRB02KT 3SM -SN BR SCT015 OVC025



MET'MAP, la Météo Aéronautique d'un coup d'oeil ! - Copyright ORBIFLY Décembre 2007 - Disclaimer

ORBIFLY MET'MAP TEAM :

Programmation & Développement : Alexandra Zaïnal
Sur une idée originale de : Baudouin d'Aumeries
Assistance à la programmation : Marc-Olivier Méhu
Soutien technique & logistique : Manuel Goepfert

Contact : metmap@orbifly.com




SOURCES & CREDITS :

   NOAA       Earth
Advisory